THA153 VTBS-WIII
Flight info
| Callsign | THA153 |
|---|---|
| Flight time | N/A |
| Altitude | 41000 |
| Route | BUT1E BUT Y11 PASVA Y514 NUFFA DCT BIKTA B469 VMR B338 ANITO B470 BUNIK BUNIK2F |
| Aircraft | A359/H-SDE2E3GHIJ3J4J5LM1ORWXY/LB1D1 |
Departure
| Time | N/A |
|---|---|
| Airport | Suvarnabhumi Airport (VTBS) |
Arrival
| Time | 2026-05-06 09:42 |
|---|---|
| Airport | Soekarno-Hatta International Airport (WIII) |
| Time | Latitude | Longitude | Altitude | Speed | Heading |
|---|---|---|---|---|---|
| 2026-05-06 09:23 | -5.26945 | 106.43698 | 20118 ft | 429 kts | 188° |
| 2026-05-06 09:24 | -5.29905 | 106.43227 | 19462 ft | 427 kts | 188° |
| 2026-05-06 09:24 | -5.32824 | 106.42761 | 18815 ft | 423 kts | 188° |
| 2026-05-06 09:24 | -5.35687 | 106.42304 | 18162 ft | 411 kts | 188° |
| 2026-05-06 09:24 | -5.38516 | 106.41852 | 17503 ft | 413 kts | 188° |
| 2026-05-06 09:25 | -5.41363 | 106.41398 | 16953 ft | 414 kts | 188° |
| 2026-05-06 09:25 | -5.44195 | 106.40946 | 16323 ft | 412 kts | 188° |
| 2026-05-06 09:25 | -5.47026 | 106.40494 | 15655 ft | 411 kts | 187° |
| 2026-05-06 09:25 | -5.49849 | 106.40043 | 14991 ft | 410 kts | 187° |
| 2026-05-06 09:26 | -5.52658 | 106.39594 | 14328 ft | 408 kts | 187° |
| 2026-05-06 09:26 | -5.55448 | 106.39149 | 13659 ft | 404 kts | 187° |
| 2026-05-06 09:26 | -5.58186 | 106.38711 | 12950 ft | 401 kts | 187° |
| 2026-05-06 09:26 | -5.60918 | 106.38275 | 12282 ft | 395 kts | 187° |
| 2026-05-06 09:27 | -5.63620 | 106.37843 | 11630 ft | 391 kts | 187° |
| 2026-05-06 09:27 | -5.66282 | 106.37418 | 11165 ft | 381 kts | 187° |
| 2026-05-06 09:27 | -5.68849 | 106.37006 | 11048 ft | 362 kts | 187° |
| 2026-05-06 09:27 | -5.71276 | 106.36616 | 10925 ft | 345 kts | 187° |
| 2026-05-06 09:28 | -5.73592 | 106.36245 | 10802 ft | 329 kts | 187° |
| 2026-05-06 09:28 | -5.75798 | 106.35892 | 10677 ft | 314 kts | 186° |
| 2026-05-06 09:28 | -5.77903 | 106.35555 | 10553 ft | 300 kts | 186° |
| 2026-05-06 09:28 | -5.79933 | 106.35231 | 10427 ft | 289 kts | 186° |
| 2026-05-06 09:29 | -5.81909 | 106.34917 | 10135 ft | 287 kts | 186° |
| 2026-05-06 09:29 | -5.83887 | 106.34602 | 9799 ft | 289 kts | 186° |
| 2026-05-06 09:29 | -5.85905 | 106.34283 | 9451 ft | 296 kts | 186° |
| 2026-05-06 09:29 | -5.87944 | 106.33958 | 9094 ft | 296 kts | 187° |
| 2026-05-06 09:30 | -5.89974 | 106.33634 | 8755 ft | 295 kts | 187° |
| 2026-05-06 09:30 | -5.91993 | 106.33310 | 8416 ft | 293 kts | 187° |
| 2026-05-06 09:30 | -5.93970 | 106.32993 | 8257 ft | 281 kts | 187° |
| 2026-05-06 09:30 | -5.95860 | 106.32689 | 8124 ft | 269 kts | 186° |
| 2026-05-06 09:31 | -5.97642 | 106.32403 | 8000 ft | 257 kts | 187° |
| 2026-05-06 09:31 | -5.99372 | 106.32125 | 7836 ft | 247 kts | 186° |
| 2026-05-06 09:31 | -6.01052 | 106.31857 | 7637 ft | 243 kts | 186° |
| 2026-05-06 09:31 | -6.02715 | 106.31599 | 7385 ft | 241 kts | 185° |
| 2026-05-06 09:32 | -6.04381 | 106.31482 | 7123 ft | 238 kts | 176° |
| 2026-05-06 09:32 | -6.06021 | 106.31630 | 7032 ft | 236 kts | 169° |
| 2026-05-06 09:32 | -6.07645 | 106.31902 | 7023 ft | 236 kts | 167° |
| 2026-05-06 09:32 | -6.09264 | 106.32192 | 7023 ft | 236 kts | 167° |
| 2026-05-06 09:33 | -6.10875 | 106.32480 | 6875 ft | 234 kts | 167° |
| 2026-05-06 09:33 | -6.12484 | 106.32768 | 6482 ft | 237 kts | 167° |
| 2026-05-06 09:33 | -6.14089 | 106.33052 | 6166 ft | 228 kts | 167° |
| 2026-05-06 09:33 | -6.15613 | 106.33321 | 5838 ft | 219 kts | 167° |
| 2026-05-06 09:34 | -6.17072 | 106.33615 | 5587 ft | 209 kts | 163° |
| 2026-05-06 09:34 | -6.18442 | 106.34064 | 5338 ft | 206 kts | 155° |
| 2026-05-06 09:34 | -6.19297 | 106.34471 | 5182 ft | 205 kts | 150° |
| 2026-05-06 09:34 | -6.20839 | 106.35526 | 4965 ft | 202 kts | 139° |
| 2026-05-06 09:35 | -6.21534 | 106.36180 | 4824 ft | 203 kts | 132° |
| 2026-05-06 09:35 | -6.22692 | 106.37661 | 4639 ft | 203 kts | 122° |
| 2026-05-06 09:35 | -6.23444 | 106.38857 | 4474 ft | 202 kts | 121° |
| 2026-05-06 09:35 | -6.24172 | 106.40082 | 4354 ft | 204 kts | 118° |
| 2026-05-06 09:36 | -6.24579 | 106.40950 | 4240 ft | 204 kts | 111° |
| 2026-05-06 09:36 | -6.24965 | 106.42297 | 4097 ft | 204 kts | 100° |
| 2026-05-06 09:36 | -6.25067 | 106.43716 | 4018 ft | 204 kts | 88° |
| 2026-05-06 09:36 | -6.24876 | 106.45120 | 4000 ft | 199 kts | 76° |
| 2026-05-06 09:37 | -6.24436 | 106.46370 | 3988 ft | 183 kts | 65° |
| 2026-05-06 09:37 | -6.23802 | 106.47462 | 4012 ft | 178 kts | 55° |
| 2026-05-06 09:37 | -6.23032 | 106.48369 | 3999 ft | 166 kts | 45° |
| 2026-05-06 09:37 | -6.22145 | 106.49109 | 3998 ft | 160 kts | 36° |
| 2026-05-06 09:38 | -6.21223 | 106.49652 | 3985 ft | 151 kts | 27° |
| 2026-05-06 09:38 | -6.20279 | 106.50060 | 3981 ft | 145 kts | 26° |
| 2026-05-06 09:38 | -6.19627 | 106.50810 | 4003 ft | 142 kts | 66° |
| 2026-05-06 09:38 | -6.19276 | 106.51729 | 4002 ft | 140 kts | 75° |
| 2026-05-06 09:39 | -6.18939 | 106.52646 | 3991 ft | 140 kts | 70° |
| 2026-05-06 09:39 | -6.18549 | 106.53612 | 3629 ft | 156 kts | 69° |
| 2026-05-06 09:39 | -6.18095 | 106.54684 | 2990 ft | 177 kts | 67° |
| 2026-05-06 09:39 | -6.17595 | 106.55826 | 2508 ft | 178 kts | 67° |
| 2026-05-06 09:40 | -6.17080 | 106.56969 | 1998 ft | 178 kts | 65° |
| 2026-05-06 09:40 | -6.16610 | 106.58078 | 1713 ft | 167 kts | 69° |
| 2026-05-06 09:40 | -6.15890 | 106.60145 | 1182 ft | 149 kts | 59° |
| 2026-05-06 09:41 | -6.15491 | 106.61145 | 744 ft | 159 kts | 68° |
| 2026-05-06 09:41 | -6.15129 | 106.62168 | 520 ft | 154 kts | 67° |
| 2026-05-06 09:41 | -6.14750 | 106.63133 | 331 ft | 141 kts | 66° |
| 2026-05-06 09:41 | -6.14402 | 106.64015 | 164 ft | 131 kts | 65° |
| 2026-05-06 09:42 | -6.14058 | 106.64857 | 46 ft | 130 kts | 67° |
| 2026-05-06 09:42 | -6.13773 | 106.65567 | 45 ft | 74 kts | 68° |
| 2026-05-06 09:42 | -6.13651 | 106.65868 | 44 ft | 39 kts | 68° |
| 2026-05-06 09:42 | -6.13543 | 106.66118 | 46 ft | 61 kts | 60° |
| 2026-05-06 09:43 | -6.13355 | 106.66299 | 46 ft | 12 kts | 10° |
| 2026-05-06 09:43 | -6.13280 | 106.66283 | 45 ft | 12 kts | 338° |
| 2026-05-06 09:43 | -6.13270 | 106.66278 | 45 ft | 0 kts | 338° |
| 2026-05-06 09:43 | -6.13264 | 106.66277 | 45 ft | 4 kts | 343° |
| 2026-05-06 09:44 | -6.13220 | 106.66280 | 45 ft | 7 kts | 18° |
| 2026-05-06 09:44 | -6.13192 | 106.66308 | 45 ft | 6 kts | 58° |
| 2026-05-06 09:44 | -6.13168 | 106.66355 | 45 ft | 8 kts | 65° |
| 2026-05-06 09:44 | -6.13150 | 106.66400 | 45 ft | 9 kts | 70° |
| 2026-05-06 09:45 | -6.13123 | 106.66472 | 45 ft | 12 kts | 68° |
| 2026-05-06 09:45 | -6.13088 | 106.66558 | 45 ft | 14 kts | 67° |
| 2026-05-06 09:45 | -6.13049 | 106.66652 | 45 ft | 15 kts | 68° |
| 2026-05-06 09:45 | -6.13009 | 106.66754 | 44 ft | 17 kts | 69° |
| 2026-05-06 09:46 | -6.12965 | 106.66866 | 44 ft | 18 kts | 68° |
| 2026-05-06 09:46 | -6.12916 | 106.66988 | 44 ft | 20 kts | 69° |
| 2026-05-06 09:46 | -6.12862 | 106.67126 | 42 ft | 22 kts | 68° |
| 2026-05-06 09:46 | -6.12814 | 106.67248 | 44 ft | 7 kts | 69° |
| 2026-05-06 09:47 | -6.12792 | 106.67306 | 43 ft | 12 kts | 69° |
| 2026-05-06 09:47 | -6.12820 | 106.67388 | 45 ft | 16 kts | 127° |
| 2026-05-06 09:47 | -6.12810 | 106.67478 | 45 ft | 15 kts | 60° |
| 2026-05-06 09:47 | -6.12756 | 106.67577 | 44 ft | 18 kts | 61° |
| 2026-05-06 09:48 | -6.12690 | 106.67691 | 44 ft | 20 kts | 57° |
| 2026-05-06 09:48 | -6.12596 | 106.67797 | 44 ft | 21 kts | 36° |
| 2026-05-06 09:48 | -6.12460 | 106.67858 | 44 ft | 22 kts | 13° |
| 2026-05-06 09:48 | -6.12309 | 106.67840 | 44 ft | 22 kts | 343° |
| 2026-05-06 09:49 | -6.12173 | 106.67795 | 47 ft | 19 kts | 338° |
| 2026-05-06 09:49 | -6.12051 | 106.67747 | 52 ft | 18 kts | 339° |
| 2026-05-06 09:49 | -6.11940 | 106.67702 | 58 ft | 17 kts | 338° |
| 2026-05-06 09:49 | -6.11836 | 106.67661 | 63 ft | 16 kts | 338° |
| 2026-05-06 09:50 | -6.11722 | 106.67616 | 62 ft | 19 kts | 338° |
| 2026-05-06 09:50 | -6.11552 | 106.67553 | 44 ft | 32 kts | 342° |
| 2026-05-06 09:50 | -6.11345 | 106.67469 | 44 ft | 32 kts | 336° |
| 2026-05-06 09:50 | -6.11236 | 106.67422 | 44 ft | 13 kts | 337° |
| 2026-05-06 09:51 | -6.11139 | 106.67381 | 44 ft | 17 kts | 333° |
| 2026-05-06 09:51 | -6.11087 | 106.67276 | 44 ft | 18 kts | 270° |
| 2026-05-06 09:51 | -6.11118 | 106.67140 | 44 ft | 23 kts | 255° |
| 2026-05-06 09:51 | -6.11148 | 106.67021 | 44 ft | 16 kts | 256° |
| 2026-05-06 09:52 | -6.11191 | 106.66900 | 44 ft | 21 kts | 249° |
| 2026-05-06 09:52 | -6.11255 | 106.66741 | 44 ft | 27 kts | 248° |
| 2026-05-06 09:52 | -6.11329 | 106.66555 | 45 ft | 30 kts | 248° |
| 2026-05-06 09:52 | -6.11406 | 106.66361 | 44 ft | 29 kts | 248° |
| 2026-05-06 09:53 | -6.11471 | 106.66197 | 43 ft | 18 kts | 248° |
| 2026-05-06 09:53 | -6.11517 | 106.66081 | 44 ft | 20 kts | 248° |
| 2026-05-06 09:53 | -6.11565 | 106.65976 | 44 ft | 4 kts | 233° |
| 2026-05-06 09:53 | -6.11577 | 106.65957 | 44 ft | 4 kts | 223° |
| 2026-05-06 09:54 | -6.11630 | 106.65957 | 44 ft | 12 kts | 166° |
| 2026-05-06 09:54 | -6.11740 | 106.65999 | 43 ft | 19 kts | 157° |
| 2026-05-06 09:54 | -6.11797 | 106.66041 | 44 ft | 8 kts | 107° |
| 2026-05-06 09:54 | -6.11784 | 106.66107 | 43 ft | 16 kts | 70° |
| 2026-05-06 09:55 | -6.11738 | 106.66232 | 44 ft | 21 kts | 70° |
| 2026-05-06 09:55 | -6.11697 | 106.66341 | 44 ft | 0 kts | 93° |
| 2026-05-06 09:55 | -6.11699 | 106.66345 | 44 ft | 1 kts | 115° |
| 2026-05-06 09:55 | -6.11707 | 106.66349 | 44 ft | 2 kts | 143° |
| 2026-05-06 09:56 | -6.11746 | 106.66370 | 44 ft | 9 kts | 156° |
| 2026-05-06 09:56 | -6.11777 | 106.66383 | 44 ft | 0 kts | 158° |
| 2026-05-06 09:56 | -6.11782 | 106.66385 | 44 ft | 0 kts | 158° |